Archival Weather

Snohomish County (Paine Fld)

Everett, Washington (KPAE)

Report from: Friday, November 10, 2023 5:03 AM PST
Current time: Monday, June 17, 2024 1:28 AM PDT

Current weather – Weather history – Daily summaries
Weather forecast

Temperature7.8°C (46.0°F)
Wind chill5.0°C (41.0°F)
Dew point5.0°C (41.0°F)
Winds 9 kts (4.6 m/s, 10.4 mph) South-Southeast (160°)
Visibility10 mi. (16.1 km)
Clouds Scattered clouds 2,400 ft. (732 m)
Ceiling: Broken clouds 3,200 ft. (975 m)
Altimeter30.10 in.Hg (1019 mB)
Relative humidity82 %
Density altitude-943 ft. (-287 m)
Remarks Fully automated report
Automated weather observing station with precipitation discriminator
Flight conditions Visual Meteorological Conditions
Raw dataKPAE 101303Z AUTO 16009KT 10SM SCT024 BKN032 08/05 A3010 RMK AO2 T00780050
An error has occurred. This application may no longer respond until reloaded. Reload 🗙